sensor_id;sensor_type;location;lat;lon;timestamp;temperature;humidity
59025;DHT22;44806;48.008;13.666;2022-12-18T00:01:16;-1.30;99.90
59025;DHT22;44806;48.008;13.666;2022-12-18T00:03:57;-1.20;99.90
59025;DHT22;44806;48.008;13.666;2022-12-18T00:06:37;-1.30;99.90
59025;DHT22;44806;48.008;13.666;2022-12-18T00:09:12;-1.40;99.90
59025;DHT22;44806;48.008;13.666;2022-12-18T00:11:46;-1.40;99.90
59025;DHT22;44806;48.008;13.666;2022-12-18T00:14:25;-1.40;99.90
59025;DHT22;44806;48.008;13.666;2022-12-18T00:16:57;-1.40;99.90
59025;DHT22;44806;48.008;13.666;2022-12-18T00:19:29;-1.40;99.90
59025;DHT22;44806;48.008;13.666;2022-12-18T00:22:04;-1.50;99.90
59025;DHT22;44806;48.008;13.666;2022-12-18T00:24:37;-1.80;99.90
59025;DHT22;44806;48.008;13.666;2022-12-18T00:27:13;-1.80;99.90
59025;DHT22;44806;48.008;13.666;2022-12-18T00:29:56;-1.70;99.90
59025;DHT22;44806;48.008;13.666;2022-12-18T00:32:28;-1.60;99.90
59025;DHT22;44806;48.008;13.666;2022-12-18T00:35:04;-1.50;99.90
59025;DHT22;44806;48.008;13.666;2022-12-18T00:37:37;-1.60;99.90
59025;DHT22;44806;48.008;13.666;2022-12-18T00:40:16;-1.60;99.90
59025;DHT22;44806;48.008;13.666;2022-12-18T00:42:47;-1.60;99.90
59025;DHT22;44806;48.008;13.666;2022-12-18T00:45:29;-1.70;99.90
59025;DHT22;44806;48.008;13.666;2022-12-18T00:48:07;-1.60;99.90
59025;DHT22;44806;48.008;13.666;2022-12-18T00:50:38;-1.60;99.90
59025;DHT22;44806;48.008;13.666;2022-12-18T00:53:16;-1.60;99.90
59025;DHT22;44806;48.008;13.666;2022-12-18T00:55:47;-1.50;99.90
59025;DHT22;44806;48.008;13.666;2022-12-18T00:58:26;-1.60;99.90
59025;DHT22;44806;48.008;13.666;2022-12-18T01:01:08;-1.60;99.90
59025;DHT22;44806;48.008;13.666;2022-12-18T01:03:42;-1.70;99.90
59025;DHT22;44806;48.008;13.666;2022-12-18T01:06:14;-1.80;99.90
59025;DHT22;44806;48.008;13.666;2022-12-18T01:08:58;-1.80;99.90
59025;DHT22;44806;48.008;13.666;2022-12-18T01:11:36;-1.80;99.90
59025;DHT22;44806;48.008;13.666;2022-12-18T01:14:11;-1.70;99.90
59025;DHT22;44806;48.008;13.666;2022-12-18T01:16:46;-1.80;99.90
59025;DHT22;44806;48.008;13.666;2022-12-18T01:19:20;-1.90;99.90
59025;DHT22;44806;48.008;13.666;2022-12-18T01:21:56;-2.00;99.90
59025;DHT22;44806;48.008;13.666;2022-12-18T01:24:35;-1.90;99.90
59025;DHT22;44806;48.008;13.666;2022-12-18T01:27:20;-1.80;99.90
59025;DHT22;44806;48.008;13.666;2022-12-18T01:29:57;-1.70;99.90
59025;DHT22;44806;48.008;13.666;2022-12-18T01:32:34;-1.70;99.90
59025;DHT22;44806;48.008;13.666;2022-12-18T01:35:06;-1.60;99.90
59025;DHT22;44806;48.008;13.666;2022-12-18T01:37:42;-1.60;99.90
59025;DHT22;44806;48.008;13.666;2022-12-18T01:40:15;-1.70;99.90
59025;DHT22;44806;48.008;13.666;2022-12-18T01:42:45;-1.70;99.90
59025;DHT22;44806;48.008;13.666;2022-12-18T01:45:31;-1.70;99.90
59025;DHT22;44806;48.008;13.666;2022-12-18T01:48:05;-1.70;99.90
59025;DHT22;44806;48.008;13.666;2022-12-18T01:50:46;-1.70;99.90
59025;DHT22;44806;48.008;13.666;2022-12-18T01:53:22;-1.70;99.90
59025;DHT22;44806;48.008;13.666;2022-12-18T01:55:56;-1.60;99.90
59025;DHT22;44806;48.008;13.666;2022-12-18T01:58:35;-1.70;99.90
59025;DHT22;44806;48.008;13.666;2022-12-18T02:01:22;-1.60;99.90
59025;DHT22;44806;48.008;13.666;2022-12-18T02:03:51;-1.60;99.90
59025;DHT22;44806;48.008;13.666;2022-12-18T02:06:31;-1.60;99.90
59025;DHT22;44806;48.008;13.666;2022-12-18T02:09:13;-1.50;99.90
59025;DHT22;44806;48.008;13.666;2022-12-18T02:12:02;-1.60;99.90
59025;DHT22;44806;48.008;13.666;2022-12-18T02:14:49;-1.50;99.90
59025;DHT22;44806;48.008;13.666;2022-12-18T02:17:31;-1.50;99.90
59025;DHT22;44806;48.008;13.666;2022-12-18T02:20:16;-1.50;99.90
59025;DHT22;44806;48.008;13.666;2022-12-18T02:23:06;-1.40;99.90
59025;DHT22;44806;48.008;13.666;2022-12-18T02:25:58;-1.40;99.90
59025;DHT22;44806;48.008;13.666;2022-12-18T02:28:39;-1.40;99.90
59025;DHT22;44806;48.008;13.666;2022-12-18T02:31:28;-1.40;99.90
59025;DHT22;44806;48.008;13.666;2022-12-18T02:34:03;-1.40;99.90
59025;DHT22;44806;48.008;13.666;2022-12-18T02:36:50;-1.40;99.90
59025;DHT22;44806;48.008;13.666;2022-12-18T02:39:25;-1.40;99.90
59025;DHT22;44806;48.008;13.666;2022-12-18T02:41:59;-1.40;99.90
59025;DHT22;44806;48.008;13.666;2022-12-18T02:44:48;-1.40;99.90
59025;DHT22;44806;48.008;13.666;2022-12-18T02:47:32;-1.40;99.90
59025;DHT22;44806;48.008;13.666;2022-12-18T02:50:17;-1.40;99.90
59025;DHT22;44806;48.008;13.666;2022-12-18T02:52:59;-1.40;99.90
59025;DHT22;44806;48.008;13.666;2022-12-18T02:55:37;-1.40;99.90
59025;DHT22;44806;48.008;13.666;2022-12-18T02:58:20;-1.40;99.90
59025;DHT22;44806;48.008;13.666;2022-12-18T03:01:03;-1.40;99.90
59025;DHT22;44806;48.008;13.666;2022-12-18T03:03:41;-1.30;99.90
59025;DHT22;44806;48.008;13.666;2022-12-18T03:06:24;-1.40;99.90
59025;DHT22;44806;48.008;13.666;2022-12-18T03:09:07;-1.40;99.90
59025;DHT22;44806;48.008;13.666;2022-12-18T03:11:52;-1.40;99.90
59025;DHT22;44806;48.008;13.666;2022-12-18T03:14:38;-1.40;99.90
59025;DHT22;44806;48.008;13.666;2022-12-18T03:17:14;-1.40;99.90
59025;DHT22;44806;48.008;13.666;2022-12-18T03:19:51;-1.40;99.90
59025;DHT22;44806;48.008;13.666;2022-12-18T03:22:23;-1.50;99.90
59025;DHT22;44806;48.008;13.666;2022-12-18T03:25:02;-1.50;99.90
59025;DHT22;44806;48.008;13.666;2022-12-18T03:27:43;-1.40;99.90
59025;DHT22;44806;48.008;13.666;2022-12-18T03:30:18;-1.50;99.90
59025;DHT22;44806;48.008;13.666;2022-12-18T03:33:03;-1.50;99.90
59025;DHT22;44806;48.008;13.666;2022-12-18T03:35:41;-1.50;99.90
59025;DHT22;44806;48.008;13.666;2022-12-18T03:38:22;-1.50;99.90
59025;DHT22;44806;48.008;13.666;2022-12-18T03:40:58;-1.50;99.90
59025;DHT22;44806;48.008;13.666;2022-12-18T03:43:40;-1.50;99.90
59025;DHT22;44806;48.008;13.666;2022-12-18T03:46:26;-1.50;99.90
59025;DHT22;44806;48.008;13.666;2022-12-18T03:49:01;-1.60;99.90
59025;DHT22;44806;48.008;13.666;2022-12-18T03:51:42;-1.60;99.90
59025;DHT22;44806;48.008;13.666;2022-12-18T03:54:20;-1.60;99.90
59025;DHT22;44806;48.008;13.666;2022-12-18T03:57:01;-1.60;99.90
59025;DHT22;44806;48.008;13.666;2022-12-18T03:59:39;-1.70;99.90
59025;DHT22;44806;48.008;13.666;2022-12-18T04:02:25;-1.80;99.90
59025;DHT22;44806;48.008;13.666;2022-12-18T04:04:58;-1.70;99.90
59025;DHT22;44806;48.008;13.666;2022-12-18T04:07:36;-1.70;99.90
59025;DHT22;44806;48.008;13.666;2022-12-18T04:10:16;-1.70;99.90
59025;DHT22;44806;48.008;13.666;2022-12-18T04:12:52;-1.70;99.90
59025;DHT22;44806;48.008;13.666;2022-12-18T04:15:28;-1.80;99.90
59025;DHT22;44806;48.008;13.666;2022-12-18T04:18:12;-1.80;99.90
59025;DHT22;44806;48.008;13.666;2022-12-18T04:20:42;-1.70;99.90
59025;DHT22;44806;48.008;13.666;2022-12-18T04:23:13;-1.70;99.90
59025;DHT22;44806;48.008;13.666;2022-12-18T04:25:48;-1.70;99.90
59025;DHT22;44806;48.008;13.666;2022-12-18T04:28:27;-1.70;99.90
59025;DHT22;44806;48.008;13.666;2022-12-18T04:31:02;-1.70;99.90
59025;DHT22;44806;48.008;13.666;2022-12-18T04:33:41;-1.60;99.90
59025;DHT22;44806;48.008;13.666;2022-12-18T04:36:22;-1.80;99.90
59025;DHT22;44806;48.008;13.666;2022-12-18T04:38:55;-1.70;99.90
59025;DHT22;44806;48.008;13.666;2022-12-18T04:41:33;-1.70;99.90
59025;DHT22;44806;48.008;13.666;2022-12-18T04:44:08;-1.70;99.90
59025;DHT22;44806;48.008;13.666;2022-12-18T04:46:47;-1.70;99.90
59025;DHT22;44806;48.008;13.666;2022-12-18T04:49:24;-1.70;99.90
59025;DHT22;44806;48.008;13.666;2022-12-18T04:52:04;-1.70;99.90
59025;DHT22;44806;48.008;13.666;2022-12-18T04:54:45;-1.70;99.90
59025;DHT22;44806;48.008;13.666;2022-12-18T04:57:22;-1.70;99.90
59025;DHT22;44806;48.008;13.666;2022-12-18T05:00:00;-1.70;99.90
59025;DHT22;44806;48.008;13.666;2022-12-18T05:02:31;-1.70;99.90
59025;DHT22;44806;48.008;13.666;2022-12-18T05:05:08;-1.70;99.90
59025;DHT22;44806;48.008;13.666;2022-12-18T05:07:43;-1.70;99.90
59025;DHT22;44806;48.008;13.666;2022-12-18T05:10:17;-1.80;99.90
59025;DHT22;44806;48.008;13.666;2022-12-18T05:12:58;-1.80;99.90
59025;DHT22;44806;48.008;13.666;2022-12-18T05:15:32;-1.90;99.90
59025;DHT22;44806;48.008;13.666;2022-12-18T05:18:08;-1.90;99.90
59025;DHT22;44806;48.008;13.666;2022-12-18T05:20:37;-2.00;99.90
59025;DHT22;44806;48.008;13.666;2022-12-18T05:23:10;-2.00;99.90
59025;DHT22;44806;48.008;13.666;2022-12-18T05:25:50;-2.20;99.90
59025;DHT22;44806;48.008;13.666;2022-12-18T05:28:22;-2.30;99.90
59025;DHT22;44806;48.008;13.666;2022-12-18T05:31:02;-2.40;99.90
59025;DHT22;44806;48.008;13.666;2022-12-18T05:33:34;-2.60;99.90
59025;DHT22;44806;48.008;13.666;2022-12-18T05:36:12;-2.50;99.90
59025;DHT22;44806;48.008;13.666;2022-12-18T05:38:54;-2.50;99.90
59025;DHT22;44806;48.008;13.666;2022-12-18T05:41:31;-2.60;99.90
59025;DHT22;44806;48.008;13.666;2022-12-18T05:44:04;-2.60;99.90
59025;DHT22;44806;48.008;13.666;2022-12-18T05:46:36;-2.50;99.90
59025;DHT22;44806;48.008;13.666;2022-12-18T05:49:17;-2.50;99.90
59025;DHT22;44806;48.008;13.666;2022-12-18T05:51:50;-2.50;99.90
59025;DHT22;44806;48.008;13.666;2022-12-18T05:54:22;-2.50;99.90
59025;DHT22;44806;48.008;13.666;2022-12-18T05:56:56;-2.40;99.90
59025;DHT22;44806;48.008;13.666;2022-12-18T05:59:28;-2.30;99.90
59025;DHT22;44806;48.008;13.666;2022-12-18T06:01:58;-2.40;99.90
59025;DHT22;44806;48.008;13.666;2022-12-18T06:04:29;-2.60;99.90
59025;DHT22;44806;48.008;13.666;2022-12-18T06:07:03;-2.50;99.90
59025;DHT22;44806;48.008;13.666;2022-12-18T06:09:43;-2.60;99.90
59025;DHT22;44806;48.008;13.666;2022-12-18T06:12:20;-2.50;99.90
59025;DHT22;44806;48.008;13.666;2022-12-18T06:14:53;-2.50;99.90
59025;DHT22;44806;48.008;13.666;2022-12-18T06:17:27;-2.50;99.90
59025;DHT22;44806;48.008;13.666;2022-12-18T06:19:58;-2.40;99.90
59025;DHT22;44806;48.008;13.666;2022-12-18T06:22:33;-2.50;99.90
59025;DHT22;44806;48.008;13.666;2022-12-18T06:25:07;-2.50;99.90
59025;DHT22;44806;48.008;13.666;2022-12-18T06:27:39;-2.50;99.90
59025;DHT22;44806;48.008;13.666;2022-12-18T06:30:19;-2.50;99.90
59025;DHT22;44806;48.008;13.666;2022-12-18T06:32:58;-2.40;99.90
59025;DHT22;44806;48.008;13.666;2022-12-18T06:35:28;-2.50;99.90
59025;DHT22;44806;48.008;13.666;2022-12-18T06:38:01;-2.50;99.90
59025;DHT22;44806;48.008;13.666;2022-12-18T06:40:35;-2.50;99.90
59025;DHT22;44806;48.008;13.666;2022-12-18T06:43:03;-2.40;99.90
59025;DHT22;44806;48.008;13.666;2022-12-18T06:45:36;-2.40;99.90
59025;DHT22;44806;48.008;13.666;2022-12-18T06:48:10;-2.50;99.90
59025;DHT22;44806;48.008;13.666;2022-12-18T06:50:53;-2.50;99.90
59025;DHT22;44806;48.008;13.666;2022-12-18T06:53:31;-2.50;99.90
59025;DHT22;44806;48.008;13.666;2022-12-18T06:56:07;-2.50;99.90
59025;DHT22;44806;48.008;13.666;2022-12-18T06:58:38;-2.50;99.90
59025;DHT22;44806;48.008;13.666;2022-12-18T07:01:08;-2.50;99.90
59025;DHT22;44806;48.008;13.666;2022-12-18T07:03:44;-2.50;99.90
59025;DHT22;44806;48.008;13.666;2022-12-18T07:06:21;-2.50;99.90
59025;DHT22;44806;48.008;13.666;2022-12-18T07:08:57;-2.80;99.90
59025;DHT22;44806;48.008;13.666;2022-12-18T07:11:28;-2.80;99.90
59025;DHT22;44806;48.008;13.666;2022-12-18T07:14:02;-2.70;99.90
59025;DHT22;44806;48.008;13.666;2022-12-18T07:16:39;-2.90;99.90
59025;DHT22;44806;48.008;13.666;2022-12-18T07:19:12;-3.00;99.90
59025;DHT22;44806;48.008;13.666;2022-12-18T07:21:48;-3.00;99.90
59025;DHT22;44806;48.008;13.666;2022-12-18T07:24:18;-3.10;99.90
59025;DHT22;44806;48.008;13.666;2022-12-18T07:26:53;-3.10;99.90
59025;DHT22;44806;48.008;13.666;2022-12-18T07:29:23;-3.00;99.90
59025;DHT22;44806;48.008;13.666;2022-12-18T07:32:00;-3.00;99.90
59025;DHT22;44806;48.008;13.666;2022-12-18T07:34:31;-2.90;99.90
59025;DHT22;44806;48.008;13.666;2022-12-18T07:37:04;-2.90;99.90
59025;DHT22;44806;48.008;13.666;2022-12-18T07:39:34;-2.90;99.90
59025;DHT22;44806;48.008;13.666;2022-12-18T07:42:02;-2.80;99.90
59025;DHT22;44806;48.008;13.666;2022-12-18T07:44:52;-2.90;99.90
59025;DHT22;44806;48.008;13.666;2022-12-18T07:47:33;-2.90;99.90
59025;DHT22;44806;48.008;13.666;2022-12-18T07:50:10;-2.90;99.90
59025;DHT22;44806;48.008;13.666;2022-12-18T07:52:43;-2.90;99.90
59025;DHT22;44806;48.008;13.666;2022-12-18T07:55:13;-2.90;99.90
59025;DHT22;44806;48.008;13.666;2022-12-18T07:57:48;-2.90;99.90
59025;DHT22;44806;48.008;13.666;2022-12-18T08:00:19;-2.90;99.90
59025;DHT22;44806;48.008;13.666;2022-12-18T08:02:58;-2.80;99.90
59025;DHT22;44806;48.008;13.666;2022-12-18T08:05:31;-2.80;99.90
59025;DHT22;44806;48.008;13.666;2022-12-18T08:08:05;-2.80;99.90
59025;DHT22;44806;48.008;13.666;2022-12-18T08:10:35;-2.80;99.90
59025;DHT22;44806;48.008;13.666;2022-12-18T08:13:12;-2.80;99.90
59025;DHT22;44806;48.008;13.666;2022-12-18T08:15:44;-2.80;99.90
59025;DHT22;44806;48.008;13.666;2022-12-18T08:18:29;-2.70;99.90
59025;DHT22;44806;48.008;13.666;2022-12-18T08:21:11;-2.70;99.90
59025;DHT22;44806;48.008;13.666;2022-12-18T08:23:46;-2.70;99.90
59025;DHT22;44806;48.008;13.666;2022-12-18T08:26:23;-2.70;99.90
59025;DHT22;44806;48.008;13.666;2022-12-18T08:28:59;-2.70;99.90
59025;DHT22;44806;48.008;13.666;2022-12-18T08:31:30;-2.60;99.90
59025;DHT22;44806;48.008;13.666;2022-12-18T08:34:05;-2.70;99.90
59025;DHT22;44806;48.008;13.666;2022-12-18T08:36:40;-2.60;99.90
59025;DHT22;44806;48.008;13.666;2022-12-18T08:39:08;-2.60;99.90
59025;DHT22;44806;48.008;13.666;2022-12-18T08:41:46;-2.60;99.90
59025;DHT22;44806;48.008;13.666;2022-12-18T08:44:40;-2.60;99.90
59025;DHT22;44806;48.008;13.666;2022-12-18T08:47:15;-2.60;99.90
59025;DHT22;44806;48.008;13.666;2022-12-18T08:49:47;-2.60;99.90
59025;DHT22;44806;48.008;13.666;2022-12-18T08:52:21;-2.60;99.90
59025;DHT22;44806;48.008;13.666;2022-12-18T08:54:53;-2.60;99.90
59025;DHT22;44806;48.008;13.666;2022-12-18T08:57:26;-2.60;99.90
59025;DHT22;44806;48.008;13.666;2022-12-18T09:00:10;-2.60;99.90
59025;DHT22;44806;48.008;13.666;2022-12-18T09:02:39;-2.60;99.90
59025;DHT22;44806;48.008;13.666;2022-12-18T09:05:19;-2.60;99.90
59025;DHT22;44806;48.008;13.666;2022-12-18T09:08:00;-2.50;99.90
59025;DHT22;44806;48.008;13.666;2022-12-18T09:10:34;-2.60;99.90
59025;DHT22;44806;48.008;13.666;2022-12-18T09:13:12;-2.50;99.90
59025;DHT22;44806;48.008;13.666;2022-12-18T09:15:46;-2.60;99.90
59025;DHT22;44806;48.008;13.666;2022-12-18T09:18:24;-2.50;99.90
59025;DHT22;44806;48.008;13.666;2022-12-18T09:20:55;-2.50;99.90
59025;DHT22;44806;48.008;13.666;2022-12-18T09:23:36;-2.50;99.90
59025;DHT22;44806;48.008;13.666;2022-12-18T09:26:06;-2.40;99.90
59025;DHT22;44806;48.008;13.666;2022-12-18T09:28:44;-2.30;99.90
59025;DHT22;44806;48.008;13.666;2022-12-18T09:31:25;-2.30;99.90
59025;DHT22;44806;48.008;13.666;2022-12-18T09:33:57;-2.40;99.90
59025;DHT22;44806;48.008;13.666;2022-12-18T09:36:29;-2.40;99.90
59025;DHT22;44806;48.008;13.666;2022-12-18T09:39:07;-2.30;99.90
59025;DHT22;44806;48.008;13.666;2022-12-18T09:41:46;-2.40;99.90
59025;DHT22;44806;48.008;13.666;2022-12-18T09:44:31;-2.30;99.90
59025;DHT22;44806;48.008;13.666;2022-12-18T09:47:09;-2.30;99.90
59025;DHT22;44806;48.008;13.666;2022-12-18T09:49:46;-2.30;99.90
59025;DHT22;44806;48.008;13.666;2022-12-18T09:52:24;-2.30;99.90
59025;DHT22;44806;48.008;13.666;2022-12-18T09:55:03;-2.30;99.90
59025;DHT22;44806;48.008;13.666;2022-12-18T09:57:39;-2.20;99.90
59025;DHT22;44806;48.008;13.666;2022-12-18T10:00:22;-2.20;99.90
59025;DHT22;44806;48.008;13.666;2022-12-18T10:03:03;-2.20;99.90
59025;DHT22;44806;48.008;13.666;2022-12-18T10:05:56;-2.20;99.90
59025;DHT22;44806;48.008;13.666;2022-12-18T10:08:37;-2.30;99.90
59025;DHT22;44806;48.008;13.666;2022-12-18T10:11:32;-2.20;99.90
59025;DHT22;44806;48.008;13.666;2022-12-18T10:14:14;-2.20;99.90
59025;DHT22;44806;48.008;13.666;2022-12-18T10:16:51;-2.40;99.90
59025;DHT22;44806;48.008;13.666;2022-12-18T10:19:41;-2.30;99.90
59025;DHT22;44806;48.008;13.666;2022-12-18T10:22:29;-2.20;99.90
59025;DHT22;44806;48.008;13.666;2022-12-18T10:25:17;-2.20;99.90
59025;DHT22;44806;48.008;13.666;2022-12-18T10:27:57;-2.10;99.90
59025;DHT22;44806;48.008;13.666;2022-12-18T10:30:32;-2.20;99.90
59025;DHT22;44806;48.008;13.666;2022-12-18T10:33:08;-2.20;99.90
59025;DHT22;44806;48.008;13.666;2022-12-18T10:35:50;-2.10;99.90
59025;DHT22;44806;48.008;13.666;2022-12-18T10:38:30;-2.00;99.90
59025;DHT22;44806;48.008;13.666;2022-12-18T10:41:06;-2.00;99.90
59025;DHT22;44806;48.008;13.666;2022-12-18T10:43:39;-2.00;99.90
59025;DHT22;44806;48.008;13.666;2022-12-18T10:46:19;-1.90;99.90
59025;DHT22;44806;48.008;13.666;2022-12-18T10:48:58;-1.90;99.90
59025;DHT22;44806;48.008;13.666;2022-12-18T10:51:32;-1.90;99.90
59025;DHT22;44806;48.008;13.666;2022-12-18T10:54:05;-1.90;99.90
59025;DHT22;44806;48.008;13.666;2022-12-18T10:56:41;-1.80;99.90
59025;DHT22;44806;48.008;13.666;2022-12-18T10:59:14;-1.70;99.90
59025;DHT22;44806;48.008;13.666;2022-12-18T11:01:55;-1.80;99.90
59025;DHT22;44806;48.008;13.666;2022-12-18T11:04:34;-1.90;99.90
59025;DHT22;44806;48.008;13.666;2022-12-18T11:07:12;-1.90;99.90
59025;DHT22;44806;48.008;13.666;2022-12-18T11:09:46;-2.20;99.90
59025;DHT22;44806;48.008;13.666;2022-12-18T11:12:34;-2.40;99.90
59025;DHT22;44806;48.008;13.666;2022-12-18T11:15:13;-2.50;99.90
59025;DHT22;44806;48.008;13.666;2022-12-18T11:17:51;-2.60;99.90
59025;DHT22;44806;48.008;13.666;2022-12-18T11:20:35;-2.40;99.90
59025;DHT22;44806;48.008;13.666;2022-12-18T11:23:10;-2.30;99.90
59025;DHT22;44806;48.008;13.666;2022-12-18T11:25:42;-2.20;99.90
59025;DHT22;44806;48.008;13.666;2022-12-18T11:28:46;-2.10;99.90
59025;DHT22;44806;48.008;13.666;2022-12-18T11:31:30;-2.10;99.90
59025;DHT22;44806;48.008;13.666;2022-12-18T11:34:12;-2.00;99.90
59025;DHT22;44806;48.008;13.666;2022-12-18T11:36:47;-1.90;99.90
59025;DHT22;44806;48.008;13.666;2022-12-18T11:39:33;-2.00;99.90
59025;DHT22;44806;48.008;13.666;2022-12-18T11:42:09;-1.90;99.90
59025;DHT22;44806;48.008;13.666;2022-12-18T11:44:48;-2.00;99.90
59025;DHT22;44806;48.008;13.666;2022-12-18T11:47:33;-1.90;99.90
59025;DHT22;44806;48.008;13.666;2022-12-18T11:50:20;-1.80;99.90
59025;DHT22;44806;48.008;13.666;2022-12-18T11:53:01;-1.80;99.90
59025;DHT22;44806;48.008;13.666;2022-12-18T11:55:41;-1.70;99.90
59025;DHT22;44806;48.008;13.666;2022-12-18T11:58:28;-1.70;99.90
59025;DHT22;44806;48.008;13.666;2022-12-18T12:01:16;-1.60;99.90
59025;DHT22;44806;48.008;13.666;2022-12-18T12:07:00;-1.50;99.90
59025;DHT22;44806;48.008;13.666;2022-12-18T12:09:40;-1.60;99.90
59025;DHT22;44806;48.008;13.666;2022-12-18T12:12:30;-1.70;99.90
59025;DHT22;44806;48.008;13.666;2022-12-18T12:15:32;-1.70;99.90
59025;DHT22;44806;48.008;13.666;2022-12-18T12:18:13;-1.50;99.90
59025;DHT22;44806;48.008;13.666;2022-12-18T12:21:00;-1.50;99.90
59025;DHT22;44806;48.008;13.666;2022-12-18T12:23:40;-1.60;99.90
59025;DHT22;44806;48.008;13.666;2022-12-18T12:26:19;-1.70;99.90
59025;DHT22;44806;48.008;13.666;2022-12-18T12:29:01;-1.70;99.90
59025;DHT22;44806;48.008;13.666;2022-12-18T12:31:50;-1.80;99.90
59025;DHT22;44806;48.008;13.666;2022-12-18T12:34:36;-1.90;99.90
59025;DHT22;44806;48.008;13.666;2022-12-18T12:37:25;-1.90;99.90
59025;DHT22;44806;48.008;13.666;2022-12-18T12:39:56;-2.00;99.90
59025;DHT22;44806;48.008;13.666;2022-12-18T12:42:40;-2.00;99.90
59025;DHT22;44806;48.008;13.666;2022-12-18T12:45:33;-1.90;99.90
59025;DHT22;44806;48.008;13.666;2022-12-18T12:48:11;-2.10;99.90
59025;DHT22;44806;48.008;13.666;2022-12-18T12:50:47;-2.40;99.90
59025;DHT22;44806;48.008;13.666;2022-12-18T12:53:35;-2.40;99.90
59025;DHT22;44806;48.008;13.666;2022-12-18T12:56:13;-2.20;99.90
59025;DHT22;44806;48.008;13.666;2022-12-18T12:58:58;-2.20;99.90
59025;DHT22;44806;48.008;13.666;2022-12-18T13:01:41;-2.10;99.90
59025;DHT22;44806;48.008;13.666;2022-12-18T13:04:25;-2.10;99.90
59025;DHT22;44806;48.008;13.666;2022-12-18T13:07:05;-2.10;99.90
59025;DHT22;44806;48.008;13.666;2022-12-18T13:10:14;-2.30;99.90
59025;DHT22;44806;48.008;13.666;2022-12-18T13:13:06;-2.50;99.90
59025;DHT22;44806;48.008;13.666;2022-12-18T13:15:41;-2.50;99.90
59025;DHT22;44806;48.008;13.666;2022-12-18T13:18:21;-2.40;99.90
59025;DHT22;44806;48.008;13.666;2022-12-18T13:21:02;-2.50;99.90
59025;DHT22;44806;48.008;13.666;2022-12-18T13:23:36;-2.40;99.90
59025;DHT22;44806;48.008;13.666;2022-12-18T13:26:33;-2.40;99.90
59025;DHT22;44806;48.008;13.666;2022-12-18T13:29:10;-2.30;99.90
59025;DHT22;44806;48.008;13.666;2022-12-18T13:35:51;-2.40;99.90
59025;DHT22;44806;48.008;13.666;2022-12-18T13:38:32;-2.50;99.90
59025;DHT22;44806;48.008;13.666;2022-12-18T13:41:14;-2.60;99.90
59025;DHT22;44806;48.008;13.666;2022-12-18T13:43:58;-2.50;99.90
59025;DHT22;44806;48.008;13.666;2022-12-18T13:46:49;-2.40;99.90
59025;DHT22;44806;48.008;13.666;2022-12-18T13:49:32;-2.50;99.90
59025;DHT22;44806;48.008;13.666;2022-12-18T13:52:21;-2.40;99.90
59025;DHT22;44806;48.008;13.666;2022-12-18T13:55:14;-2.40;99.90
59025;DHT22;44806;48.008;13.666;2022-12-18T13:57:46;-2.30;99.90
59025;DHT22;44806;48.008;13.666;2022-12-18T14:00:25;-2.30;99.90
59025;DHT22;44806;48.008;13.666;2022-12-18T14:02:59;-2.20;99.90
59025;DHT22;44806;48.008;13.666;2022-12-18T14:05:38;-2.20;99.90
59025;DHT22;44806;48.008;13.666;2022-12-18T14:08:14;-2.10;99.90
59025;DHT22;44806;48.008;13.666;2022-12-18T14:10:49;-2.10;99.90
59025;DHT22;44806;48.008;13.666;2022-12-18T14:13:28;-2.20;99.90
59025;DHT22;44806;48.008;13.666;2022-12-18T14:15:58;-2.20;99.90
59025;DHT22;44806;48.008;13.666;2022-12-18T14:18:38;-2.20;99.90
59025;DHT22;44806;48.008;13.666;2022-12-18T14:21:21;-2.20;99.90
59025;DHT22;44806;48.008;13.666;2022-12-18T14:24:14;-2.20;99.90
59025;DHT22;44806;48.008;13.666;2022-12-18T14:26:46;-2.20;99.90
59025;DHT22;44806;48.008;13.666;2022-12-18T14:29:24;-2.30;99.90
59025;DHT22;44806;48.008;13.666;2022-12-18T14:32:15;-2.30;99.90
59025;DHT22;44806;48.008;13.666;2022-12-18T14:34:49;-2.30;99.90
59025;DHT22;44806;48.008;13.666;2022-12-18T14:37:24;-2.30;99.90
59025;DHT22;44806;48.008;13.666;2022-12-18T14:40:03;-2.40;99.90
59025;DHT22;44806;48.008;13.666;2022-12-18T14:42:34;-2.40;99.90
59025;DHT22;44806;48.008;13.666;2022-12-18T14:45:39;-2.40;99.90
59025;DHT22;44806;48.008;13.666;2022-12-18T14:48:20;-2.40;99.90
59025;DHT22;44806;48.008;13.666;2022-12-18T14:51:03;-2.30;99.90
59025;DHT22;44806;48.008;13.666;2022-12-18T14:53:40;-2.30;99.90
59025;DHT22;44806;48.008;13.666;2022-12-18T14:56:17;-2.20;99.90
59025;DHT22;44806;48.008;13.666;2022-12-18T14:58:54;-2.30;99.90
59025;DHT22;44806;48.008;13.666;2022-12-18T15:01:30;-2.30;99.90
59025;DHT22;44806;48.008;13.666;2022-12-18T15:04:27;-2.30;99.90
59025;DHT22;44806;48.008;13.666;2022-12-18T15:07:04;-2.40;99.90
59025;DHT22;44806;48.008;13.666;2022-12-18T15:10:03;-2.40;99.90
59025;DHT22;44806;48.008;13.666;2022-12-18T15:13:05;-2.30;99.90
59025;DHT22;44806;48.008;13.666;2022-12-18T15:15:53;-2.20;99.90
59025;DHT22;44806;48.008;13.666;2022-12-18T15:18:34;-2.10;99.90
59025;DHT22;44806;48.008;13.666;2022-12-18T15:21:17;-2.10;99.90
59025;DHT22;44806;48.008;13.666;2022-12-18T15:23:54;-2.00;99.90
59025;DHT22;44806;48.008;13.666;2022-12-18T15:26:39;-1.90;99.90
59025;DHT22;44806;48.008;13.666;2022-12-18T15:29:24;-1.90;99.90
59025;DHT22;44806;48.008;13.666;2022-12-18T15:32:05;-1.90;99.90
59025;DHT22;44806;48.008;13.666;2022-12-18T15:34:41;-1.80;99.90
59025;DHT22;44806;48.008;13.666;2022-12-18T15:37:15;-1.90;99.90
59025;DHT22;44806;48.008;13.666;2022-12-18T15:39:46;-1.80;99.90
59025;DHT22;44806;48.008;13.666;2022-12-18T15:42:26;-1.80;99.90
59025;DHT22;44806;48.008;13.666;2022-12-18T15:45:16;-1.80;99.90
59025;DHT22;44806;48.008;13.666;2022-12-18T15:47:50;-1.90;99.90
59025;DHT22;44806;48.008;13.666;2022-12-18T15:50:24;-1.90;99.90
59025;DHT22;44806;48.008;13.666;2022-12-18T15:52:55;-1.90;99.90
59025;DHT22;44806;48.008;13.666;2022-12-18T15:55:24;-1.80;99.90
59025;DHT22;44806;48.008;13.666;2022-12-18T15:58:10;-1.80;99.90
59025;DHT22;44806;48.008;13.666;2022-12-18T16:00:45;-1.80;99.90
59025;DHT22;44806;48.008;13.666;2022-12-18T16:03:20;-1.80;99.90
59025;DHT22;44806;48.008;13.666;2022-12-18T16:05:55;-1.90;99.90
59025;DHT22;44806;48.008;13.666;2022-12-18T16:08:25;-1.80;99.90
59025;DHT22;44806;48.008;13.666;2022-12-18T16:11:05;-1.80;99.90
59025;DHT22;44806;48.008;13.666;2022-12-18T16:13:43;-1.90;99.90
59025;DHT22;44806;48.008;13.666;2022-12-18T16:16:27;-1.90;99.90
59025;DHT22;44806;48.008;13.666;2022-12-18T16:18:56;-2.00;99.90
59025;DHT22;44806;48.008;13.666;2022-12-18T16:21:26;-2.00;99.90
59025;DHT22;44806;48.008;13.666;2022-12-18T16:23:57;-1.90;99.90
59025;DHT22;44806;48.008;13.666;2022-12-18T16:26:34;-1.80;99.90
59025;DHT22;44806;48.008;13.666;2022-12-18T16:29:06;-1.90;99.90
59025;DHT22;44806;48.008;13.666;2022-12-18T16:31:39;-1.90;99.90